Airlines, Airports & Routes Topics about airports, routes and airline business.

EasyJet - 4

Old 7th Jan 2014, 02:34
  #3621 (permalink)  
 
Join Date: Nov 2008
Location: Exit stage right.
Posts: 290
Likes: 0
Received 5 Likes on 5 Posts
EZY have confirmed that they will be using their A320 again next winter on the LONDON SOUTHEND -TENERIFE route...pax numbers must be good this year with just 2 flights per week, could do with a GRAN CANARIA flight,i live in hope,its only an extra 10 mins flying time
Gotta wonder why not have some extra flights but do a Sen-TFS-Grand Canaria.
racedo is offline  
Old 7th Jan 2014, 04:01
  #3622 (permalink)  
 
Join Date: Sep 2008
Location: Blighty
Posts: 5,675
Likes: 0
Received 22 Likes on 17 Posts
racedo - paying 2 sets of landing charges in the Canaries along with the fuel needed to take off and fly the short island hop might be a factor.
davidjohnson6 is offline  
Old 7th Jan 2014, 07:39
  #3623 (permalink)  
 
Join Date: Jun 2011
Location: Ainsdale
Posts: 1,751
Received 0 Likes on 0 Posts
An A320 transferred to EasyJet Switzerland last night. Does anyone know how many will transfer this winter?
MKY661 is online now  
Old 7th Jan 2014, 09:48
  #3624 (permalink)  
 
Join Date: Sep 2007
Location: Nottingham
Age: 38
Posts: 165
Likes: 0
Received 0 Likes on 0 Posts
Can anyone tell me when to expect Easy releasing their winter 2014/15 routes to the Alps? Appreciate maybe not for a while yet.
sunday8pm is offline  
Old 12th Jan 2014, 07:36
  #3625 (permalink)  
 
Join Date: Apr 2008
Location: Germany
Posts: 1,208
Likes: 0
Received 0 Likes on 0 Posts
Traffic figures

Q4/2013

October: 5,530,091 +5.4% LF: 89,1% +0.7 p.p.
November: 4,255,978 +3.4% LF: 89.0% -0.6 p.p.
December: 4,490,538 +3.5% LF: 87.9% +0.0 p.p.

2013
Passengers: 61,332,803 +3.6% LF: 89.3% +0.4 p.p.
Seljuk22 is offline  
Old 14th Jan 2014, 03:37
  #3626 (permalink)  
 
Join Date: Jun 2011
Location: essex
Posts: 596
Likes: 0
Received 0 Likes on 0 Posts
EZY/SEN

Our airport is becoming quite religous At the moment we have G-EZUS(jesus)(A320) & G-NOAH (noah)(A319), anymore out there?
mikkie4 is offline  
Old 14th Jan 2014, 15:36
  #3627 (permalink)  
 
Join Date: Jun 2000
Location: last time I looked I was still here.
Posts: 4,507
Likes: 0
Received 0 Likes on 0 Posts
You're close to the beach and more storms are on the way. Be careful about what these omens may bring and check your boats. Build ye your house not on sand, but rock. Pre-flight rwy check includes the dykes.
RAT 5 is offline  
Old 14th Jan 2014, 17:51
  #3628 (permalink)  
 
Join Date: Nov 2008
Location: Exit stage right.
Posts: 290
Likes: 0
Received 5 Likes on 5 Posts
Pre-flight rwy check includes the dykes.
U2 have a clear non dicsrimination policy regarding orientation.
racedo is offline  
Old 22nd Jan 2014, 07:28
  #3629 (permalink)  
 
Join Date: Apr 2012
Location: LKMT
Age: 39
Posts: 19
Likes: 0
Received 0 Likes on 0 Posts
EasyJet diversion planning

Hello everybody,

this Monday 20.1.2014 has due to weather diverted 4 EasyJet aircraft heading to Krakow to BRNO(LKTB).


My quesstion is why to Brno(LKTB), why not Ostrava(LKMT) wich is closer?(I know there is many facts involved -meteo,policy,....)

Weather at airport:

BRNO(LKTB): CAT I ILS

METAR LKTB 201030Z 06009KT 3300 -RA BR BKN009 OVC016 07/07 Q1001 NOSIG
METAR LKTB 201130Z 06010KT 5000 -RA BR BKN010 OVC018 07/06 Q1001 NOSIG

OSTRAVA(LKMT): CAT II ILS
METAR LKMT 200930Z 01009KT 3700 -RA BR OVC004 04/04 Q1003 NOSIG
METAR LKMT 201100Z 01007KT 3500 -RA BR OVC003 04/03 Q1003 NOSIG
METAR LKMT 201130Z 01007KT 3200 -RA BR OVC004 04/03 Q1003 NOSIG


KRAKOW(EPKK): ILS CAT I

METAR EPKK 200930Z 06017KT 6000 BKN004 01/01 Q1005
METAR EPKK 201030Z 06014KT 6000 -RA BKN004 01/01 Q1005
Ross182 is offline  
Old 26th Jan 2014, 08:23
  #3630 (permalink)  
 
Join Date: Sep 2008
Location: Channel Islands
Posts: 137
Likes: 0
Received 0 Likes on 0 Posts
I've got to say, I've just returned from a weeks holiday in Fuerteventura which I booked through Easyjet holidays.
First class service from beginning to end. I would highly recommend it to anyone. It will definitely be my first port of call for my next holiday
GCILover is offline  
Old 1st Feb 2014, 21:06
  #3631 (permalink)  
 
Join Date: Aug 2008
Location: Spain
Age: 82
Posts: 490
Likes: 0
Received 0 Likes on 0 Posts
Anyone know if EJ are flying winter schedules VLC-GTW?
Sunnyjohn is offline  
Old 1st Feb 2014, 22:18
  #3632 (permalink)  
 
Join Date: Dec 2010
Location: Ireland
Posts: 1,167
Likes: 0
Received 0 Likes on 0 Posts
A simple search on Google ''VLC LGW flights'' shows that it is!
Jack1985 is offline  
Old 2nd Feb 2014, 04:05
  #3633 (permalink)  
 
Join Date: Apr 2008
Location: Germany
Posts: 1,208
Likes: 0
Received 0 Likes on 0 Posts
Some more routes from FCO:

31MAR: BEG 3 weekly
02APR: SKG 2 weekly (4 weekly from 16JUN)
15JUN: MPL 3 weekly
17JUN: MAH 3 weekly (seasonal until 04SEP)
17JUN: RHO 2 weekly (seasonal until 02SEP)
Seljuk22 is offline  
Old 2nd Feb 2014, 16:48
  #3634 (permalink)  
 
Join Date: Aug 2008
Location: Spain
Age: 82
Posts: 490
Likes: 0
Received 0 Likes on 0 Posts
A simple search on Google ''VLC LGW flights'' shows that it is!
There are no flights shown after October 2014. I spent nearly an hour googling and got the above result. That's why I asked the question here. However, I did just try again, in case new flights were entered, and there are no flights shown after October 2014.
Sunnyjohn is offline  
Old 2nd Feb 2014, 16:59
  #3635 (permalink)  
 
Join Date: Jul 2006
Location: Ballymena
Posts: 1,446
Likes: 0
Received 0 Likes on 0 Posts
Because the winter flights are not on sale yet
True Blue is online now  
Old 2nd Feb 2014, 19:13
  #3636 (permalink)  
 
Join Date: Mar 2013
Location: Warrington
Age: 74
Posts: 117
Likes: 0
Received 0 Likes on 0 Posts
Sunnyjohn

As True Blue has said next winter's flights are not on sale yet. The nornal ruling is the winter flights go on sale as the summer schedules starts (that is the end of March) and likewise the summer flights go on sale as the winter schedule starts. In other words you won't find two the same seasons on sale at the same time.

And by the way GTW was the code for Gatow in Germany. LGW is Gatwick.
Sholto Douglas is offline  
Old 3rd Feb 2014, 09:05
  #3637 (permalink)  
 
Join Date: Aug 2008
Location: Spain
Age: 82
Posts: 490
Likes: 0
Received 0 Likes on 0 Posts
Thank you all, and
And by the way GTW was the code for Gatow in Germany. LGW is Gatwick.
Whoops
Sunnyjohn is offline  
Old 6th Feb 2014, 12:29
  #3638 (permalink)  
 
Join Date: Aug 2013
Location: London
Posts: 837
Likes: 0
Received 0 Likes on 0 Posts
Amman

What's behind the easyJet decision to axe Amman flights from Gatwick?


Is it simply down to lack of popularity or are there other factors?
wallp is offline  
Old 6th Feb 2014, 12:34
  #3639 (permalink)  
 
Join Date: Sep 2008
Location: Blighty
Posts: 5,675
Likes: 0
Received 22 Likes on 17 Posts
Interesting blog post on Easyjet's Amman route ending at EasyJet drops Amman, favours Tel Aviv | Quite Alone

Last edited by davidjohnson6; 7th Feb 2014 at 01:59.
davidjohnson6 is offline  
Old 6th Feb 2014, 12:36
  #3640 (permalink)  
 
Join Date: Sep 2003
Location: Dunstable
Age: 44
Posts: 408
Likes: 0
Received 0 Likes on 0 Posts
Think new TLV route takes over AMM route. My guess is AMM was not as profitable as the TLV route.
Airbourne-Adamski is offline  

Thread Tools
Search this Thread

Contact Us - Archive - Advertising - Cookie Policy - Privacy Statement - Terms of Service

Copyright © 2024 MH Sub I, LLC dba Internet Brands. All rights reserved. Use of this site indicates your consent to the Terms of Use.